createdAt,value
2022-10-22T00:01:06.003Z,96359.16
2022-10-22T00:03:33.936Z,96362.91
2022-10-22T00:06:01.871Z,96321.06
2022-10-22T00:08:30.265Z,96377.66
2022-10-22T00:10:58.162Z,96373.59
2022-10-22T00:13:28.922Z,96386.59
2022-10-22T00:15:56.634Z,96390.31
2022-10-22T00:18:24.444Z,96394.81
2022-10-22T00:20:52.152Z,96414.09
2022-10-22T00:23:19.857Z,96419.53
2022-10-22T00:25:47.511Z,96420.22
2022-10-22T00:28:15.555Z,96428.41
2022-10-22T00:30:44.650Z,96426.22
2022-10-22T00:33:12.362Z,96424.63
2022-10-22T00:35:40.169Z,96413.34
2022-10-22T00:38:08.188Z,96423.53
2022-10-22T00:40:36.273Z,96431.09
2022-10-22T00:43:04.224Z,96442.97
2022-10-22T00:45:32.011Z,96427.59
2022-10-22T00:48:05.697Z,96432.81
2022-10-22T00:50:36.767Z,96439.81
2022-10-22T00:53:07.547Z,96451.91
2022-10-22T00:55:36.433Z,96446.81
2022-10-22T00:58:05.182Z,96432.16
2022-10-22T01:00:33.301Z,96452.19
2022-10-22T01:03:03.170Z,96462.72
2022-10-22T01:05:45.240Z,96457.88
2022-10-22T01:08:23.238Z,96447.13
2022-10-22T01:11:00.826Z,96435.59
2022-10-22T01:13:39.784Z,96409.09
2022-10-22T01:16:12.777Z,96434.16
2022-10-22T01:18:49.041Z,96431.47
2022-10-22T01:21:26.298Z,96436.75
2022-10-22T01:24:36.692Z,96425.81
2022-10-22T01:27:22.057Z,96414.56
2022-10-22T01:29:53.946Z,96406.22
2022-10-22T01:32:24.708Z,96404.00
2022-10-22T01:34:56.389Z,96399.09
2022-10-22T01:37:27.210Z,96377.56
2022-10-22T01:39:56.983Z,96378.69
2022-10-22T01:42:25.067Z,96368.19
2022-10-22T01:44:54.269Z,96376.81
2022-10-22T01:47:36.936Z,96368.75
2022-10-22T01:50:33.501Z,96385.66
2022-10-22T01:53:20.023Z,96392.34
2022-10-22T01:55:57.991Z,96394.47
2022-10-22T01:58:40.686Z,96398.28
2022-10-22T02:01:17.077Z,96396.13
2022-10-22T02:03:50.119Z,96403.41
2022-10-22T02:06:22.178Z,96389.16
2022-10-22T02:08:50.479Z,96400.44
2022-10-22T02:11:18.436Z,96415.47
2022-10-22T02:13:49.283Z,96405.22
2022-10-22T02:16:22.815Z,96412.53
2022-10-22T02:18:55.026Z,96399.13
2022-10-22T02:21:23.178Z,96396.41
2022-10-22T02:23:51.106Z,96406.34
2022-10-22T02:26:24.661Z,96385.75
2022-10-22T02:28:59.872Z,96417.59
2022-10-22T02:35:04.593Z,96407.66
2022-10-22T02:37:33.548Z,96419.84
2022-10-22T02:40:01.227Z,96425.22
2022-10-22T02:42:29.731Z,96430.88
2022-10-22T02:44:57.439Z,96416.28
2022-10-22T02:47:25.097Z,96411.13
2022-10-22T02:49:52.803Z,96396.00
2022-10-22T02:52:21.879Z,96430.63
2022-10-22T02:54:49.561Z,96429.88
2022-10-22T02:57:17.292Z,96428.53
2022-10-22T02:59:45.067Z,96432.56
2022-10-22T03:02:12.757Z,96428.44
2022-10-22T03:04:40.489Z,96441.16
2022-10-22T03:07:08.235Z,96449.94
2022-10-22T03:09:37.361Z,96439.44
2022-10-22T03:12:05.578Z,96447.25
2022-10-22T03:14:33.244Z,96449.47
2022-10-22T03:17:00.945Z,96447.38
2022-10-22T03:19:28.630Z,96444.19
2022-10-22T03:22:01.125Z,96435.44
2022-10-22T03:24:31.262Z,96428.25
2022-10-22T03:27:00.377Z,96426.81
2022-10-22T03:29:28.905Z,96442.50
2022-10-22T03:31:56.633Z,96410.00
2022-10-22T03:34:24.345Z,96429.47
2022-10-22T03:36:53.129Z,96442.47
2022-10-22T03:39:21.920Z,96446.78
2022-10-22T03:41:50.706Z,96444.31
2022-10-22T03:44:20.758Z,96440.81
2022-10-22T03:46:48.418Z,96444.88
2022-10-22T03:49:16.137Z,96430.78
2022-10-22T03:51:44.098Z,96406.38
2022-10-22T03:54:11.833Z,96443.63
2022-10-22T03:56:39.601Z,96439.56
2022-10-22T03:59:07.302Z,96455.84
2022-10-22T04:01:36.411Z,96452.88
2022-10-22T04:04:04.185Z,96436.47
2022-10-22T04:06:32.103Z,96424.03
2022-10-22T04:09:01.097Z,96429.47
2022-10-22T04:11:28.870Z,96422.91
2022-10-22T04:13:56.546Z,96447.09
2022-10-22T04:16:27.372Z,96450.81
2022-10-22T04:18:58.508Z,96460.00
2022-10-22T04:21:26.679Z,96424.84
2022-10-22T04:23:54.787Z,96460.25
2022-10-22T04:26:22.819Z,96469.31
2022-10-22T04:28:52.150Z,96465.84
2022-10-22T04:31:21.401Z,96465.25
2022-10-22T04:33:52.904Z,96474.88
2022-10-22T04:36:22.344Z,96476.53
2022-10-22T04:38:54.999Z,96480.25
2022-10-22T04:41:25.304Z,96475.47
2022-10-22T04:43:54.722Z,96474.09
2022-10-22T04:46:22.894Z,96481.91
2022-10-22T04:48:52.824Z,96480.38
2022-10-22T04:51:24.420Z,96478.19
2022-10-22T04:53:52.332Z,96476.00
2022-10-22T04:56:21.960Z,96485.97
2022-10-22T04:58:51.391Z,96493.13
2022-10-22T05:01:20.818Z,96486.38
2022-10-22T05:03:49.963Z,96475.94
2022-10-22T05:06:18.235Z,96473.13
2022-10-22T05:08:47.953Z,96471.03
2022-10-22T05:11:17.636Z,96479.16
2022-10-22T05:13:45.943Z,96495.41
2022-10-22T05:16:14.359Z,96493.44
2022-10-22T05:18:44.371Z,96504.41
2022-10-22T05:21:17.392Z,96501.75
2022-10-22T05:23:45.610Z,96502.31
2022-10-22T05:26:15.999Z,96505.50
2022-10-22T05:28:43.990Z,96501.72
2022-10-22T05:31:13.388Z,96506.81
2022-10-22T05:33:41.852Z,96514.69
2022-10-22T05:36:13.183Z,96509.25
2022-10-22T05:38:40.969Z,96505.19
2022-10-22T05:41:11.245Z,96526.00
2022-10-22T05:43:40.821Z,96526.63
2022-10-22T05:46:10.695Z,96525.75
2022-10-22T05:48:39.025Z,96524.69
2022-10-22T05:51:09.302Z,96529.50
2022-10-22T05:53:38.818Z,96528.13
2022-10-22T05:56:08.909Z,96528.13
2022-10-22T05:58:40.192Z,96531.19
2022-10-22T06:01:12.395Z,96543.75
2022-10-22T06:03:40.192Z,96543.56
2022-10-22T06:06:18.434Z,96536.81
2022-10-22T06:08:46.546Z,96517.25
2022-10-22T06:11:14.485Z,96538.69
2022-10-22T06:13:43.485Z,96536.88
2022-10-22T06:16:11.593Z,96533.94
2022-10-22T06:18:39.311Z,96532.88
2022-10-22T06:21:08.142Z,96524.00
2022-10-22T06:23:36.272Z,96514.34
2022-10-22T06:26:04.527Z,96513.25
2022-10-22T06:28:32.753Z,96509.69
2022-10-22T06:31:02.776Z,96504.25
2022-10-22T06:33:30.878Z,96513.31
2022-10-22T06:36:07.663Z,96519.44
2022-10-22T06:38:35.727Z,96495.84
2022-10-22T06:41:04.491Z,96548.75
2022-10-22T06:43:32.168Z,96554.44
2022-10-22T06:46:02.278Z,96552.69
2022-10-22T06:48:30.818Z,96566.22
2022-10-22T06:51:02.387Z,96572.06
2022-10-22T06:53:30.323Z,96574.38
2022-10-22T06:55:58.267Z,96578.56
2022-10-22T06:58:26.012Z,96584.50
2022-10-22T07:01:03.647Z,96609.22
2022-10-22T07:03:31.494Z,96619.00
2022-10-22T07:06:01.327Z,96609.56
2022-10-22T07:08:29.704Z,96623.19
2022-10-22T07:10:59.205Z,96610.94
2022-10-22T07:13:26.934Z,96620.78
2022-10-22T07:15:55.504Z,96621.56
2022-10-22T07:18:24.593Z,96624.16
2022-10-22T07:20:52.288Z,96627.63
2022-10-22T07:23:19.991Z,96618.84
2022-10-22T07:25:47.781Z,96615.31
2022-10-22T07:28:15.751Z,96601.03
2022-10-22T07:30:43.482Z,96607.69
2022-10-22T07:33:11.658Z,96568.31
2022-10-22T07:35:41.369Z,96621.78
2022-10-22T07:38:09.861Z,96623.72
2022-10-22T07:40:37.948Z,96630.53
2022-10-22T07:43:06.322Z,96627.44
2022-10-22T07:45:34.378Z,96621.91
2022-10-22T07:48:02.293Z,96619.28
2022-10-22T07:50:30.130Z,96621.94
2022-10-22T07:52:59.287Z,96615.25
2022-10-22T07:55:27.156Z,96613.03
2022-10-22T07:57:54.871Z,96623.59
2022-10-22T08:00:25.189Z,96615.31
2022-10-22T08:02:53.444Z,96615.16
2022-10-22T08:05:21.224Z,96621.19
2022-10-22T08:07:48.926Z,96617.38
2022-10-22T08:10:18.208Z,96612.50
2022-10-22T08:12:45.925Z,96612.03
2022-10-22T08:15:13.823Z,96608.81
2022-10-22T08:17:41.949Z,96609.81
2022-10-22T08:20:10.716Z,96611.19
2022-10-22T08:22:38.468Z,96609.59
2022-10-22T08:25:07.133Z,96619.06
2022-10-22T08:27:36.257Z,96617.16
2022-10-22T08:30:04.855Z,96622.28
2022-10-22T08:32:33.088Z,96620.19
2022-10-22T08:35:00.813Z,96621.50
2022-10-22T08:37:28.517Z,96610.72
2022-10-22T08:39:56.176Z,96613.03
2022-10-22T08:42:44.177Z,96610.63
2022-10-22T08:45:17.084Z,96628.75
2022-10-22T08:48:00.872Z,96625.63
2022-10-22T08:50:34.558Z,96592.97
2022-10-22T08:53:06.685Z,96635.16
2022-10-22T08:55:37.562Z,96620.34
2022-10-22T08:58:20.146Z,96603.09
2022-10-22T09:00:53.874Z,96619.56
2022-10-22T09:03:37.617Z,96625.75
2022-10-22T09:06:12.148Z,96629.47
2022-10-22T09:08:41.821Z,96641.97
2022-10-22T09:11:20.031Z,96623.63
2022-10-22T09:13:50.161Z,96639.56
2022-10-22T09:16:20.495Z,96640.28
2022-10-22T09:19:01.347Z,96642.75
2022-10-22T09:21:39.637Z,96649.03
2022-10-22T09:24:13.217Z,96646.84
2022-10-22T09:26:42.608Z,96644.34
2022-10-22T09:29:20.636Z,96647.19
2022-10-22T09:31:48.367Z,96654.81
2022-10-22T09:34:16.798Z,96668.63
2022-10-22T09:36:44.592Z,96659.94
2022-10-22T09:39:24.209Z,96645.13
2022-10-22T09:41:51.913Z,96647.34
2022-10-22T09:44:22.151Z,96650.03
2022-10-22T09:46:49.876Z,96650.56
2022-10-22T09:49:20.709Z,96641.16
2022-10-22T09:51:52.508Z,96643.84
2022-10-22T09:54:22.590Z,96646.31
2022-10-22T09:56:56.599Z,96651.75
2022-10-22T09:59:33.768Z,96652.53
2022-10-22T10:02:19.481Z,96665.72
2022-10-22T10:04:50.958Z,96661.66
2022-10-22T10:07:20.714Z,96661.13
2022-10-22T10:09:48.840Z,96641.94
2022-10-22T10:12:38.217Z,96663.59
2022-10-22T10:15:18.019Z,96669.56
2022-10-22T10:17:51.996Z,96662.56
2022-10-22T10:20:31.062Z,96666.94
2022-10-22T10:23:08.823Z,96676.41
2022-10-22T10:25:46.746Z,96662.03
2022-10-22T10:28:37.983Z,96659.22
2022-10-22T10:31:18.788Z,96669.75
2022-10-22T10:33:57.624Z,96661.06
2022-10-22T10:36:34.147Z,96658.00
2022-10-22T10:39:05.965Z,96659.06
2022-10-22T10:41:45.425Z,96647.19
2022-10-22T10:44:32.633Z,96639.41
2022-10-22T10:47:13.053Z,96657.88
2022-10-22T10:49:41.057Z,96664.84
2022-10-22T10:52:21.175Z,96652.84
2022-10-22T10:55:00.696Z,96661.09
2022-10-22T10:57:40.943Z,96654.03
2022-10-22T11:00:12.825Z,96663.53
2022-10-22T11:03:13.224Z,96669.41
2022-10-22T11:05:45.077Z,96663.31
2022-10-22T11:08:19.977Z,96659.94
2022-10-22T11:10:50.719Z,96664.28
2022-10-22T11:13:28.021Z,96670.44
2022-10-22T11:16:02.572Z,96665.84
2022-10-22T11:18:35.438Z,96653.06
2022-10-22T11:21:14.267Z,96654.47
2022-10-22T11:23:47.697Z,96638.22
2022-10-22T11:26:28.263Z,96653.16
2022-10-22T11:28:59.070Z,96642.34
2022-10-22T11:31:27.918Z,96649.72
2022-10-22T11:34:28.559Z,96645.16
2022-10-22T11:36:55.835Z,96635.91
2022-10-22T11:39:44.230Z,96637.56
2022-10-22T11:42:13.958Z,96646.63
2022-10-22T11:44:49.749Z,96642.88
2022-10-22T11:47:20.857Z,96643.72
2022-10-22T11:49:58.506Z,96638.03
2022-10-22T11:52:40.061Z,96637.16
2022-10-22T11:55:33.340Z,96631.78
2022-10-22T11:58:03.121Z,96644.97
2022-10-22T12:00:41.264Z,96631.53
2022-10-22T12:03:18.923Z,96617.13
2022-10-22T12:05:47.640Z,96629.78
2022-10-22T12:08:26.077Z,96633.16
2022-10-22T12:11:05.105Z,96624.09
2022-10-22T12:13:35.544Z,96613.91
2022-10-22T12:16:05.363Z,96621.44
2022-10-22T12:18:40.795Z,96619.09
2022-10-22T12:21:12.957Z,96612.50
2022-10-22T12:23:42.663Z,96626.72
2022-10-22T12:26:24.995Z,96611.66
2022-10-22T12:28:57.485Z,96618.38
2022-10-22T12:31:25.254Z,96599.34
2022-10-22T12:33:57.828Z,96618.72
2022-10-22T12:36:27.904Z,96602.28
2022-10-22T12:39:01.119Z,96612.16
2022-10-22T12:41:32.258Z,96612.66
2022-10-22T12:44:00.663Z,96602.31
2022-10-22T12:46:30.904Z,96621.09
2022-10-22T12:49:01.529Z,96620.34
2022-10-22T12:51:29.760Z,96622.56
2022-10-22T12:54:05.978Z,96614.22
2022-10-22T12:56:36.626Z,96608.19
2022-10-22T12:59:08.854Z,96605.59
2022-10-22T13:01:39.316Z,96610.63
2022-10-22T13:04:19.793Z,96609.81
2022-10-22T13:06:49.529Z,96608.19
2022-10-22T13:09:23.883Z,96608.47
2022-10-22T13:11:58.147Z,96606.34
2022-10-22T13:14:31.569Z,96607.44
2022-10-22T13:17:12.114Z,96599.59
2022-10-22T13:19:48.794Z,96596.34
2022-10-22T13:22:30.341Z,96594.47
2022-10-22T13:25:01.025Z,96588.50
2022-10-22T13:27:29.643Z,96592.81
2022-10-22T13:30:02.180Z,96592.78
2022-10-22T13:32:32.869Z,96590.06
2022-10-22T13:35:02.358Z,96591.97
2022-10-22T13:37:32.176Z,96586.53
2022-10-22T13:40:01.220Z,96561.38
2022-10-22T13:42:28.927Z,96577.59
2022-10-22T13:44:56.644Z,96574.69
2022-10-22T13:47:29.318Z,96575.47
2022-10-22T13:49:59.321Z,96578.38
2022-10-22T13:52:35.521Z,96577.91
2022-10-22T13:55:14.549Z,96560.53
2022-10-22T13:57:42.390Z,96565.69
2022-10-22T14:00:13.973Z,96568.63
2022-10-22T14:02:42.363Z,96568.34
2022-10-22T14:05:11.268Z,96565.91
2022-10-22T14:07:40.393Z,96574.53
2022-10-22T14:10:18.499Z,96564.31
2022-10-22T14:12:50.877Z,96563.97
2022-10-22T14:15:23.770Z,96569.91
2022-10-22T14:17:55.000Z,96569.38
2022-10-22T14:20:25.033Z,96549.91
2022-10-22T14:22:52.771Z,96542.09
2022-10-22T14:25:24.173Z,96571.25
2022-10-22T14:27:52.339Z,96567.19
2022-10-22T14:30:21.950Z,96563.66
2022-10-22T14:32:50.273Z,96567.75
2022-10-22T14:35:20.587Z,96555.03
2022-10-22T14:37:48.734Z,96556.63
2022-10-22T14:40:19.178Z,96569.34
2022-10-22T14:42:49.805Z,96568.25
2022-10-22T14:45:20.935Z,96568.22
2022-10-22T14:47:49.350Z,96560.38
2022-10-22T14:50:17.679Z,96562.03
2022-10-22T14:52:46.043Z,96564.41
2022-10-22T14:55:15.553Z,96572.50
2022-10-22T14:57:43.703Z,96567.63
2022-10-22T15:00:15.551Z,96556.78
2022-10-22T15:02:43.652Z,96575.63
2022-10-22T15:05:11.962Z,96577.25
2022-10-22T15:07:40.636Z,96567.84
2022-10-22T15:10:09.801Z,96574.84
2022-10-22T15:12:37.559Z,96563.78
2022-10-22T15:15:06.216Z,96562.44
2022-10-22T15:17:35.369Z,96563.22
2022-10-22T15:20:04.158Z,96564.84
2022-10-22T15:22:35.013Z,96567.28
2022-10-22T15:25:03.506Z,96562.94
2022-10-22T15:27:31.828Z,96568.03
2022-10-22T15:29:59.847Z,96558.59
2022-10-22T15:32:28.352Z,96567.47
2022-10-22T15:34:57.482Z,96562.53
2022-10-22T15:37:25.186Z,96571.75
2022-10-22T15:39:52.872Z,96570.63
2022-10-22T15:42:20.617Z,96572.78
2022-10-22T15:44:48.351Z,96571.69
2022-10-22T15:47:16.116Z,96572.16
2022-10-22T15:49:43.855Z,96577.63
2022-10-22T15:52:13.049Z,96583.22
2022-10-22T15:54:43.768Z,96586.09
2022-10-22T15:57:11.471Z,96580.19
2022-10-22T15:59:39.633Z,96570.41
2022-10-22T16:02:08.176Z,96577.44
2022-10-22T16:04:35.834Z,96582.25
2022-10-22T16:07:03.607Z,96574.66
2022-10-22T16:09:32.699Z,96584.34
2022-10-22T16:12:00.436Z,96586.97
2022-10-22T16:14:28.876Z,96590.69
2022-10-22T16:16:57.502Z,96593.31
2022-10-22T16:19:26.059Z,96581.16
2022-10-22T16:21:56.263Z,96591.66
2022-10-22T16:24:24.456Z,96589.47
2022-10-22T16:26:53.891Z,96585.06
2022-10-22T16:29:21.624Z,96592.09
2022-10-22T16:31:49.380Z,96595.41
2022-10-22T16:34:17.149Z,96587.50
2022-10-22T16:36:45.215Z,96595.34
2022-10-22T16:39:12.950Z,96597.75
2022-10-22T16:41:40.663Z,96605.28
2022-10-22T16:44:12.291Z,96612.72
2022-10-22T16:46:40.043Z,96613.41
2022-10-22T16:49:08.529Z,96600.63
2022-10-22T16:51:36.369Z,96599.00
2022-10-22T16:54:06.781Z,96593.81
2022-10-22T16:56:37.513Z,96606.00
2022-10-22T16:59:05.206Z,96597.81
2022-10-22T17:01:39.531Z,96594.41
2022-10-22T17:04:08.256Z,96609.34
2022-10-22T17:06:36.055Z,96602.50
2022-10-22T17:09:04.275Z,96602.75
2022-10-22T17:11:36.286Z,96603.25
2022-10-22T17:14:05.944Z,96611.50
2022-10-22T17:16:35.028Z,96621.88
2022-10-22T17:19:04.550Z,96610.19
2022-10-22T17:21:32.368Z,96616.41
2022-10-22T17:24:00.101Z,96611.97
2022-10-22T17:26:27.926Z,96613.88
2022-10-22T17:28:55.752Z,96614.59
2022-10-22T17:31:27.787Z,96617.88
2022-10-22T17:33:59.783Z,96617.34
2022-10-22T17:36:31.807Z,96607.38
2022-10-22T17:39:05.545Z,96619.56
2022-10-22T17:41:35.345Z,96609.06
2022-10-22T17:44:04.664Z,96617.34
2022-10-22T17:46:33.628Z,96621.78
2022-10-22T17:49:05.317Z,96608.97
2022-10-22T17:51:33.630Z,96628.84
2022-10-22T17:54:03.419Z,96621.50
2022-10-22T17:56:33.701Z,96625.41
2022-10-22T17:59:02.682Z,96629.91
2022-10-22T18:01:32.368Z,96613.56
2022-10-22T18:04:04.381Z,96619.47
2022-10-22T18:06:32.998Z,96620.38
2022-10-22T18:09:00.871Z,96620.38
2022-10-22T18:11:31.459Z,96615.69
2022-10-22T18:13:59.740Z,96617.38
2022-10-22T18:16:27.548Z,96621.88
2022-10-22T18:18:56.739Z,96625.09
2022-10-22T18:21:28.296Z,96621.03
2022-10-22T18:23:56.950Z,96625.66
2022-10-22T18:26:26.872Z,96616.16
2022-10-22T18:28:55.075Z,96626.06
2022-10-22T18:31:24.767Z,96623.81
2022-10-22T18:36:24.057Z,96613.69
2022-10-22T18:38:54.738Z,96617.78
2022-10-22T18:41:22.830Z,96613.94
2022-10-22T18:43:54.650Z,96618.16
2022-10-22T18:46:23.923Z,96616.13
2022-10-22T18:48:53.473Z,96630.91
2022-10-22T18:51:21.213Z,96618.94
2022-10-22T18:54:04.516Z,96623.50
2022-10-22T18:56:41.519Z,96617.56
2022-10-22T18:59:16.398Z,96611.88
2022-10-22T19:01:44.144Z,96633.66
2022-10-22T19:04:13.408Z,96621.19
2022-10-22T19:06:44.521Z,96613.97
2022-10-22T19:09:13.624Z,96638.78
2022-10-22T19:11:43.852Z,96636.00
2022-10-22T19:14:11.651Z,96635.44
2022-10-22T19:16:39.341Z,96636.16
2022-10-22T19:19:08.698Z,96632.25
2022-10-22T19:21:37.799Z,96640.16
2022-10-22T19:24:05.898Z,96644.91
2022-10-22T19:26:33.818Z,96647.50
2022-10-22T19:29:03.311Z,96641.47
2022-10-22T19:31:31.620Z,96615.34
2022-10-22T19:34:00.551Z,96639.03
2022-10-22T19:36:30.039Z,96636.09
2022-10-22T19:38:58.622Z,96636.09
2022-10-22T19:41:28.140Z,96633.47
2022-10-22T19:43:57.159Z,96643.88
2022-10-22T19:46:27.991Z,96640.63
2022-10-22T19:48:57.287Z,96645.16
2022-10-22T19:51:27.760Z,96649.81
2022-10-22T19:53:59.445Z,96647.47
2022-10-22T19:56:27.950Z,96625.19
2022-10-22T19:58:55.731Z,96641.13
2022-10-22T20:01:23.773Z,96638.91
2022-10-22T20:03:53.164Z,96639.75
2022-10-22T20:06:21.796Z,96638.13
2022-10-22T20:08:52.348Z,96641.59
2022-10-22T20:11:25.333Z,96629.84
2022-10-22T20:13:53.100Z,96631.38
2022-10-22T20:16:23.834Z,96637.38
2022-10-22T20:18:53.360Z,96636.78
2022-10-22T20:21:22.043Z,96643.66
2022-10-22T20:23:53.454Z,96649.53
2022-10-22T20:26:21.319Z,96645.00
2022-10-22T20:28:49.016Z,96643.59
2022-10-22T20:31:20.607Z,96632.41
2022-10-22T20:33:49.246Z,96627.22
2022-10-22T20:36:20.464Z,96627.22
2022-10-22T20:38:48.939Z,96647.81
2022-10-22T20:41:18.867Z,96638.03
2022-10-22T20:43:47.614Z,96637.09
2022-10-22T20:46:18.932Z,96631.63
2022-10-22T20:48:46.854Z,96625.44
2022-10-22T20:51:15.028Z,96625.09
2022-10-22T20:53:44.228Z,96626.53
2022-10-22T20:56:12.488Z,96635.94
2022-10-22T20:58:40.370Z,96640.53
2022-10-22T21:01:12.071Z,96639.69
2022-10-22T21:03:39.969Z,96639.47
2022-10-22T21:06:08.123Z,96643.19
2022-10-22T21:08:35.850Z,96646.34
2022-10-22T21:11:05.057Z,96641.16
2022-10-22T21:13:33.451Z,96645.78
2022-10-22T21:16:07.441Z,96640.72
2022-10-22T21:18:35.743Z,96646.63
2022-10-22T21:21:05.167Z,96632.81
2022-10-22T21:23:33.155Z,96643.97
2022-10-22T21:26:01.025Z,96640.22
2022-10-22T21:31:03.215Z,96642.22
2022-10-22T21:33:31.078Z,96638.38
2022-10-22T21:35:59.153Z,96633.59
2022-10-22T21:38:27.007Z,96636.97
2022-10-22T21:40:54.778Z,96636.03
2022-10-22T21:43:22.505Z,96629.50
2022-10-22T21:45:51.673Z,96638.38
2022-10-22T21:48:19.410Z,96635.97
2022-10-22T21:50:47.204Z,96611.53
2022-10-22T21:53:15.344Z,96628.38
2022-10-22T21:55:43.046Z,96637.38
2022-10-22T21:58:10.770Z,96639.47
2022-10-22T22:00:38.489Z,96644.13
2022-10-22T22:03:09.128Z,96644.63
2022-10-22T22:05:37.046Z,96640.03
2022-10-22T22:08:04.797Z,96650.50
2022-10-22T22:10:32.636Z,96633.28
2022-10-22T22:13:00.338Z,96641.06
2022-10-22T22:15:28.742Z,96639.78
2022-10-22T22:17:56.451Z,96642.59
2022-10-22T22:20:25.705Z,96633.41
2022-10-22T22:22:53.478Z,96634.69
2022-10-22T22:25:21.243Z,96626.91
2022-10-22T22:27:49.011Z,96626.44
2022-10-22T22:30:17.860Z,96623.03
2022-10-22T22:32:45.580Z,96620.16
2022-10-22T22:35:13.270Z,96612.94
2022-10-22T22:37:42.524Z,96619.66
2022-10-22T22:40:11.630Z,96606.84
2022-10-22T22:42:39.292Z,96609.88
2022-10-22T22:45:07.795Z,96598.59
2022-10-22T22:47:35.445Z,96609.66
2022-10-22T22:50:03.153Z,96604.28
2022-10-22T22:52:30.854Z,96603.00
2022-10-22T22:54:59.963Z,96604.28
2022-10-22T22:57:27.647Z,96595.81
2022-10-22T22:59:55.373Z,96591.84
2022-10-22T23:02:23.167Z,96595.94
2022-10-22T23:04:50.826Z,96584.66
2022-10-22T23:07:18.506Z,96584.66
2022-10-22T23:09:46.265Z,96598.97
2022-10-22T23:12:15.472Z,96606.41
2022-10-22T23:14:43.144Z,96605.59
2022-10-22T23:17:10.866Z,96602.44
2022-10-22T23:19:38.601Z,96607.47
2022-10-22T23:22:06.278Z,96600.00
2022-10-22T23:24:34.075Z,96603.94
2022-10-22T23:27:03.844Z,96590.94
2022-10-22T23:29:35.988Z,96594.78
2022-10-22T23:32:04.766Z,96603.94
2022-10-22T23:34:33.273Z,96603.59
2022-10-22T23:37:01.043Z,96606.28
2022-10-22T23:39:29.831Z,96597.19
2022-10-22T23:41:57.989Z,96596.28
2022-10-22T23:44:26.121Z,96593.72
2022-10-22T23:46:55.320Z,96598.81
2022-10-22T23:49:23.013Z,96597.22
2022-10-22T23:51:50.687Z,96593.84
2022-10-22T23:54:19.204Z,96590.94
2022-10-22T23:56:47.492Z,96606.41
2022-10-22T23:59:15.531Z,96602.22
